Brunswick Golden Isles Airport Brunswick US
ICAO: KBQK
IATA: BQK
Category: Medium
Scheduled Services: Yes

Elevation: 26 ft
TransAlt. 18000 ft.

Airport Communications:
AWOS 3:124.175
CLNC DEL:126.75
JACKSONVILLE CNTR:126.75
MACON RDO:122.2
CTAF/UNICOM:122.8

KBQK Zoom In..

If you have problems with the map follow the link
https://www.worldairports.se/pages/airport.php?
ICAO=KBQK

Runways:

(A) RW 07 length 8001 ft width 150 ft
ILS 108.50 / hdg 69

(B) RW 25 length 8001 ft width 150 ft
---- / hdg 249

Location; KBQK
Day. 18 / Time. 22.35 Zulu
* Altimeter: 30.10
* Temperature: 16° c. 60.8°f.
* Wind from: 150° Speed 05 kn.
Dewpoint: 12° c.
Visibility: 10 Statute Miles.
Clouds: Scattered 4100 ft.
Clouds: Broken 5500 ft.
Clouds: Overcast 6500 ft.

KBQK 182235Z AUTO 15005KT 10SM SCT041 BKN055 OVC065 16/12 A3010 RMK AO2


Wind From 150°
Speed 05 kn.

 
 
jpsmedia.com for Web Design worldairports.se 2019   terms of use